7NC0 weather

CLOSED Pamlico Airport
Bayboro, North Carolina, United States

Public forecast

Using degrees Fahrenheit for public forecast. Weather courtesy of forecast.io.

METAR (pilot weather report)

Closest report is Coastal Carolina Regional Airport, 14.7 nm (27.2 km) WSW. Retrieved 2019/02/19 21:54 UTC (46 minutes ago):

KEWN 192154Z 05010KT 10SM OVC110 06/M02 A3056 RMK AO2 SLP349 T00561017

TAF (pilot weather forecast)

Closest forecast is Coastal Carolina Regional Airport, 14.7 nm (27.2 km) WSW. Retrieved 2019/02/19 18:36 UTC (4 hours ago):

TAF KEWN 191734Z 1918/2018 04010G15KT P6SM VCSH SCT040 OVC100 FM200600 05008KT 6SM -RA SCT030 OVC050 FM200900 05008KT 6SM -RA SCT007 OVC020 FM201400 06010G15KT 5SM -RA OVC007